sensor_id;sensor_type;location;lat;lon;timestamp;P1;durP1;ratioP1;P2;durP2;ratioP2
43449;SDS011;29041;42.266;23.110;2022-10-22T00:02:00;14.60;;;8.02;;
43449;SDS011;29041;42.266;23.110;2022-10-22T00:04:49;12.30;;;8.15;;
43449;SDS011;29041;42.266;23.110;2022-10-22T00:07:36;14.35;;;7.13;;
43449;SDS011;29041;42.266;23.110;2022-10-22T00:10:23;13.52;;;8.35;;
43449;SDS011;29041;42.266;23.110;2022-10-22T00:13:10;13.95;;;8.43;;
43449;SDS011;29041;42.266;23.110;2022-10-22T00:15:58;13.73;;;7.97;;
43449;SDS011;29041;42.266;23.110;2022-10-22T00:18:45;16.15;;;8.32;;
43449;SDS011;29041;42.266;23.110;2022-10-22T00:21:33;16.30;;;9.40;;
43449;SDS011;29041;42.266;23.110;2022-10-22T00:24:21;12.40;;;7.78;;
43449;SDS011;29041;42.266;23.110;2022-10-22T00:27:08;16.40;;;8.77;;
43449;SDS011;29041;42.266;23.110;2022-10-22T00:29:57;13.45;;;6.97;;
43449;SDS011;29041;42.266;23.110;2022-10-22T00:32:45;14.50;;;8.38;;
43449;SDS011;29041;42.266;23.110;2022-10-22T00:35:32;15.70;;;7.88;;
43449;SDS011;29041;42.266;23.110;2022-10-22T00:38:20;14.13;;;8.27;;
43449;SDS011;29041;42.266;23.110;2022-10-22T00:41:08;17.67;;;7.78;;
43449;SDS011;29041;42.266;23.110;2022-10-22T00:43:56;9.60;;;7.15;;
43449;SDS011;29041;42.266;23.110;2022-10-22T00:46:45;12.07;;;7.63;;
43449;SDS011;29041;42.266;23.110;2022-10-22T00:49:32;12.95;;;7.63;;
43449;SDS011;29041;42.266;23.110;2022-10-22T00:52:20;11.63;;;7.47;;
43449;SDS011;29041;42.266;23.110;2022-10-22T00:55:09;12.93;;;7.45;;
43449;SDS011;29041;42.266;23.110;2022-10-22T00:57:58;14.90;;;7.65;;
43449;SDS011;29041;42.266;23.110;2022-10-22T01:00:47;11.63;;;7.55;;
43449;SDS011;29041;42.266;23.110;2022-10-22T01:03:35;12.73;;;7.47;;
43449;SDS011;29041;42.266;23.110;2022-10-22T01:06:23;10.55;;;5.95;;
43449;SDS011;29041;42.266;23.110;2022-10-22T01:09:14;11.13;;;7.35;;
43449;SDS011;29041;42.266;23.110;2022-10-22T01:12:09;9.15;;;6.15;;
43449;SDS011;29041;42.266;23.110;2022-10-22T01:15:06;17.38;;;7.68;;
43449;SDS011;29041;42.266;23.110;2022-10-22T01:18:05;11.00;;;6.47;;
43449;SDS011;29041;42.266;23.110;2022-10-22T01:20:57;7.82;;;5.78;;
43449;SDS011;29041;42.266;23.110;2022-10-22T01:27:18;15.70;;;7.30;;
43449;SDS011;29041;42.266;23.110;2022-10-22T01:30:16;10.13;;;6.38;;
43449;SDS011;29041;42.266;23.110;2022-10-22T01:33:05;14.00;;;7.55;;
43449;SDS011;29041;42.266;23.110;2022-10-22T01:35:54;14.63;;;7.60;;
43449;SDS011;29041;42.266;23.110;2022-10-22T01:38:44;11.75;;;6.38;;
43449;SDS011;29041;42.266;23.110;2022-10-22T01:41:32;16.02;;;8.52;;
43449;SDS011;29041;42.266;23.110;2022-10-22T01:44:22;9.88;;;6.05;;
43449;SDS011;29041;42.266;23.110;2022-10-22T01:47:15;11.75;;;6.40;;
43449;SDS011;29041;42.266;23.110;2022-10-22T01:53:31;11.02;;;6.38;;
43449;SDS011;29041;42.266;23.110;2022-10-22T01:56:29;9.05;;;6.68;;
43449;SDS011;29041;42.266;23.110;2022-10-22T01:59:31;13.45;;;8.45;;
43449;SDS011;29041;42.266;23.110;2022-10-22T02:02:30;8.70;;;6.28;;
43449;SDS011;29041;42.266;23.110;2022-10-22T02:05:23;12.50;;;6.28;;
43449;SDS011;29041;42.266;23.110;2022-10-22T02:08:16;12.10;;;6.97;;
43449;SDS011;29041;42.266;23.110;2022-10-22T02:11:06;10.43;;;7.22;;
43449;SDS011;29041;42.266;23.110;2022-10-22T02:13:54;15.38;;;7.43;;
43449;SDS011;29041;42.266;23.110;2022-10-22T02:16:45;10.85;;;6.93;;
43449;SDS011;29041;42.266;23.110;2022-10-22T02:19:37;11.82;;;7.47;;
43449;SDS011;29041;42.266;23.110;2022-10-22T02:22:29;13.32;;;6.93;;
43449;SDS011;29041;42.266;23.110;2022-10-22T02:25:17;12.13;;;8.00;;
43449;SDS011;29041;42.266;23.110;2022-10-22T02:28:09;11.43;;;6.65;;
43449;SDS011;29041;42.266;23.110;2022-10-22T02:31:04;10.10;;;6.43;;
43449;SDS011;29041;42.266;23.110;2022-10-22T02:33:58;10.88;;;6.53;;
43449;SDS011;29041;42.266;23.110;2022-10-22T02:36:53;10.75;;;6.93;;
43449;SDS011;29041;42.266;23.110;2022-10-22T02:39:42;11.65;;;6.90;;
43449;SDS011;29041;42.266;23.110;2022-10-22T02:42:30;11.30;;;7.13;;
43449;SDS011;29041;42.266;23.110;2022-10-22T02:45:19;13.32;;;7.55;;
43449;SDS011;29041;42.266;23.110;2022-10-22T02:48:06;21.20;;;9.07;;
43449;SDS011;29041;42.266;23.110;2022-10-22T02:50:53;13.57;;;7.97;;
43449;SDS011;29041;42.266;23.110;2022-10-22T02:53:42;13.13;;;9.18;;
43449;SDS011;29041;42.266;23.110;2022-10-22T02:56:29;11.85;;;7.32;;
43449;SDS011;29041;42.266;23.110;2022-10-22T02:59:16;13.25;;;7.65;;
43449;SDS011;29041;42.266;23.110;2022-10-22T03:02:04;10.82;;;6.93;;
43449;SDS011;29041;42.266;23.110;2022-10-22T03:04:52;12.52;;;8.18;;
43449;SDS011;29041;42.266;23.110;2022-10-22T03:07:40;9.77;;;6.50;;
43449;SDS011;29041;42.266;23.110;2022-10-22T03:10:29;12.90;;;6.75;;
43449;SDS011;29041;42.266;23.110;2022-10-22T03:13:16;11.45;;;6.50;;
43449;SDS011;29041;42.266;23.110;2022-10-22T03:16:03;11.57;;;6.82;;
43449;SDS011;29041;42.266;23.110;2022-10-22T03:18:51;12.90;;;7.13;;
43449;SDS011;29041;42.266;23.110;2022-10-22T03:21:39;11.95;;;6.53;;
43449;SDS011;29041;42.266;23.110;2022-10-22T03:24:33;10.05;;;6.72;;
43449;SDS011;29041;42.266;23.110;2022-10-22T03:27:24;11.93;;;6.50;;
43449;SDS011;29041;42.266;23.110;2022-10-22T03:30:13;12.35;;;6.75;;
43449;SDS011;29041;42.266;23.110;2022-10-22T03:33:01;12.55;;;7.43;;
43449;SDS011;29041;42.266;23.110;2022-10-22T03:35:48;12.57;;;6.07;;
43449;SDS011;29041;42.266;23.110;2022-10-22T03:38:35;11.60;;;6.78;;
43449;SDS011;29041;42.266;23.110;2022-10-22T03:41:25;11.00;;;6.35;;
43449;SDS011;29041;42.266;23.110;2022-10-22T03:44:13;10.82;;;6.45;;
43449;SDS011;29041;42.266;23.110;2022-10-22T03:47:02;12.00;;;6.93;;
43449;SDS011;29041;42.266;23.110;2022-10-22T03:49:49;11.32;;;7.18;;
43449;SDS011;29041;42.266;23.110;2022-10-22T03:52:38;10.02;;;6.25;;
43449;SDS011;29041;42.266;23.110;2022-10-22T03:55:25;8.82;;;5.70;;
43449;SDS011;29041;42.266;23.110;2022-10-22T03:58:13;11.90;;;6.88;;
43449;SDS011;29041;42.266;23.110;2022-10-22T04:01:04;12.15;;;7.25;;
43449;SDS011;29041;42.266;23.110;2022-10-22T04:03:52;11.05;;;6.57;;
43449;SDS011;29041;42.266;23.110;2022-10-22T04:06:40;12.73;;;7.05;;
43449;SDS011;29041;42.266;23.110;2022-10-22T04:09:29;13.45;;;7.43;;
43449;SDS011;29041;42.266;23.110;2022-10-22T04:12:17;13.43;;;6.90;;
43449;SDS011;29041;42.266;23.110;2022-10-22T04:15:04;12.48;;;7.20;;
43449;SDS011;29041;42.266;23.110;2022-10-22T04:17:54;10.45;;;7.68;;
43449;SDS011;29041;42.266;23.110;2022-10-22T04:20:41;12.25;;;6.97;;
43449;SDS011;29041;42.266;23.110;2022-10-22T04:23:28;10.30;;;6.57;;
43449;SDS011;29041;42.266;23.110;2022-10-22T04:26:15;12.13;;;6.55;;
43449;SDS011;29041;42.266;23.110;2022-10-22T04:29:08;15.70;;;7.22;;
43449;SDS011;29041;42.266;23.110;2022-10-22T04:31:56;12.65;;;7.50;;
43449;SDS011;29041;42.266;23.110;2022-10-22T04:34:45;13.45;;;6.75;;
43449;SDS011;29041;42.266;23.110;2022-10-22T04:37:32;11.55;;;7.03;;
43449;SDS011;29041;42.266;23.110;2022-10-22T04:40:19;10.27;;;7.57;;
43449;SDS011;29041;42.266;23.110;2022-10-22T04:43:06;13.85;;;8.05;;
43449;SDS011;29041;42.266;23.110;2022-10-22T04:45:55;14.80;;;7.43;;
43449;SDS011;29041;42.266;23.110;2022-10-22T04:48:45;17.00;;;9.75;;
43449;SDS011;29041;42.266;23.110;2022-10-22T04:51:37;16.00;;;7.60;;
43449;SDS011;29041;42.266;23.110;2022-10-22T04:54:24;16.90;;;6.75;;
43449;SDS011;29041;42.266;23.110;2022-10-22T04:57:11;19.73;;;9.18;;
43449;SDS011;29041;42.266;23.110;2022-10-22T04:59:59;16.77;;;9.80;;
43449;SDS011;29041;42.266;23.110;2022-10-22T05:02:47;15.93;;;7.25;;
43449;SDS011;29041;42.266;23.110;2022-10-22T05:05:35;10.50;;;7.90;;
43449;SDS011;29041;42.266;23.110;2022-10-22T05:08:24;13.85;;;8.18;;
43449;SDS011;29041;42.266;23.110;2022-10-22T05:11:12;31.35;;;13.20;;
43449;SDS011;29041;42.266;23.110;2022-10-22T05:14:01;24.95;;;12.23;;
43449;SDS011;29041;42.266;23.110;2022-10-22T05:16:50;13.48;;;8.38;;
43449;SDS011;29041;42.266;23.110;2022-10-22T05:19:38;15.73;;;8.15;;
43449;SDS011;29041;42.266;23.110;2022-10-22T05:22:25;12.25;;;8.15;;
43449;SDS011;29041;42.266;23.110;2022-10-22T05:25:14;12.32;;;8.00;;
43449;SDS011;29041;42.266;23.110;2022-10-22T05:28:01;16.27;;;8.00;;
43449;SDS011;29041;42.266;23.110;2022-10-22T05:30:52;13.52;;;8.05;;
43449;SDS011;29041;42.266;23.110;2022-10-22T05:33:40;12.75;;;7.25;;
43449;SDS011;29041;42.266;23.110;2022-10-22T05:36:36;14.98;;;8.55;;
43449;SDS011;29041;42.266;23.110;2022-10-22T05:39:26;13.48;;;9.82;;
43449;SDS011;29041;42.266;23.110;2022-10-22T05:42:16;13.10;;;7.25;;
43449;SDS011;29041;42.266;23.110;2022-10-22T05:45:16;16.30;;;8.70;;
43449;SDS011;29041;42.266;23.110;2022-10-22T05:48:04;16.23;;;8.55;;
43449;SDS011;29041;42.266;23.110;2022-10-22T05:50:52;17.35;;;9.98;;
43449;SDS011;29041;42.266;23.110;2022-10-22T05:53:41;17.90;;;9.30;;
43449;SDS011;29041;42.266;23.110;2022-10-22T05:56:29;17.50;;;9.93;;
43449;SDS011;29041;42.266;23.110;2022-10-22T05:59:19;11.60;;;7.55;;
43449;SDS011;29041;42.266;23.110;2022-10-22T06:02:07;14.15;;;8.02;;
43449;SDS011;29041;42.266;23.110;2022-10-22T06:04:55;15.82;;;9.35;;
43449;SDS011;29041;42.266;23.110;2022-10-22T06:07:42;11.90;;;7.25;;
43449;SDS011;29041;42.266;23.110;2022-10-22T06:10:29;15.68;;;8.20;;
43449;SDS011;29041;42.266;23.110;2022-10-22T06:13:17;26.85;;;13.88;;
43449;SDS011;29041;42.266;23.110;2022-10-22T06:16:05;13.25;;;7.97;;
43449;SDS011;29041;42.266;23.110;2022-10-22T06:18:53;13.45;;;8.57;;
43449;SDS011;29041;42.266;23.110;2022-10-22T06:21:40;17.38;;;9.80;;
43449;SDS011;29041;42.266;23.110;2022-10-22T06:24:28;17.00;;;9.90;;
43449;SDS011;29041;42.266;23.110;2022-10-22T06:27:15;37.03;;;15.65;;
43449;SDS011;29041;42.266;23.110;2022-10-22T06:30:03;14.55;;;9.50;;
43449;SDS011;29041;42.266;23.110;2022-10-22T06:32:52;16.40;;;10.90;;
43449;SDS011;29041;42.266;23.110;2022-10-22T06:35:39;16.73;;;10.43;;
43449;SDS011;29041;42.266;23.110;2022-10-22T06:38:26;18.52;;;10.32;;
43449;SDS011;29041;42.266;23.110;2022-10-22T06:41:14;21.95;;;10.20;;
43449;SDS011;29041;42.266;23.110;2022-10-22T06:44:02;15.88;;;9.25;;
43449;SDS011;29041;42.266;23.110;2022-10-22T06:46:51;17.20;;;10.95;;
43449;SDS011;29041;42.266;23.110;2022-10-22T06:49:40;20.67;;;12.30;;
43449;SDS011;29041;42.266;23.110;2022-10-22T06:52:28;12.10;;;8.73;;
43449;SDS011;29041;42.266;23.110;2022-10-22T06:55:15;13.98;;;8.30;;
43449;SDS011;29041;42.266;23.110;2022-10-22T06:58:04;12.77;;;8.63;;
43449;SDS011;29041;42.266;23.110;2022-10-22T07:00:59;11.00;;;8.05;;
43449;SDS011;29041;42.266;23.110;2022-10-22T07:03:48;10.95;;;8.10;;
43449;SDS011;29041;42.266;23.110;2022-10-22T07:06:37;16.80;;;8.40;;
43449;SDS011;29041;42.266;23.110;2022-10-22T07:09:25;14.70;;;9.23;;
43449;SDS011;29041;42.266;23.110;2022-10-22T07:12:16;10.00;;;7.30;;
43449;SDS011;29041;42.266;23.110;2022-10-22T07:15:04;16.05;;;8.38;;
43449;SDS011;29041;42.266;23.110;2022-10-22T07:17:52;13.07;;;7.78;;
43449;SDS011;29041;42.266;23.110;2022-10-22T07:20:39;13.57;;;8.25;;
43449;SDS011;29041;42.266;23.110;2022-10-22T07:23:28;13.88;;;8.73;;
43449;SDS011;29041;42.266;23.110;2022-10-22T07:26:16;14.88;;;7.88;;
43449;SDS011;29041;42.266;23.110;2022-10-22T07:29:04;12.80;;;7.53;;
43449;SDS011;29041;42.266;23.110;2022-10-22T07:31:51;11.50;;;7.00;;
43449;SDS011;29041;42.266;23.110;2022-10-22T07:34:39;8.98;;;6.80;;
43449;SDS011;29041;42.266;23.110;2022-10-22T07:37:26;10.15;;;6.53;;
43449;SDS011;29041;42.266;23.110;2022-10-22T07:40:15;11.95;;;6.78;;
43449;SDS011;29041;42.266;23.110;2022-10-22T07:43:03;12.48;;;6.40;;
43449;SDS011;29041;42.266;23.110;2022-10-22T07:45:51;15.65;;;8.02;;
43449;SDS011;29041;42.266;23.110;2022-10-22T07:48:40;21.23;;;8.63;;
43449;SDS011;29041;42.266;23.110;2022-10-22T07:51:27;27.05;;;12.77;;
43449;SDS011;29041;42.266;23.110;2022-10-22T07:54:14;23.63;;;10.07;;
43449;SDS011;29041;42.266;23.110;2022-10-22T07:57:03;14.60;;;7.75;;
43449;SDS011;29041;42.266;23.110;2022-10-22T07:59:50;15.50;;;9.75;;
43449;SDS011;29041;42.266;23.110;2022-10-22T08:02:37;11.77;;;7.65;;
43449;SDS011;29041;42.266;23.110;2022-10-22T08:05:24;12.60;;;7.70;;
43449;SDS011;29041;42.266;23.110;2022-10-22T08:08:12;9.27;;;6.05;;
43449;SDS011;29041;42.266;23.110;2022-10-22T08:11:01;7.80;;;5.65;;
43449;SDS011;29041;42.266;23.110;2022-10-22T08:13:49;6.53;;;4.55;;
43449;SDS011;29041;42.266;23.110;2022-10-22T08:16:37;8.18;;;4.60;;
43449;SDS011;29041;42.266;23.110;2022-10-22T08:19:24;8.40;;;5.22;;
43449;SDS011;29041;42.266;23.110;2022-10-22T08:22:13;18.88;;;8.18;;
43449;SDS011;29041;42.266;23.110;2022-10-22T08:25:00;10.60;;;6.82;;
43449;SDS011;29041;42.266;23.110;2022-10-22T08:27:47;10.50;;;6.32;;
43449;SDS011;29041;42.266;23.110;2022-10-22T08:30:36;8.57;;;6.50;;
43449;SDS011;29041;42.266;23.110;2022-10-22T08:33:24;7.45;;;5.50;;
43449;SDS011;29041;42.266;23.110;2022-10-22T08:36:11;8.15;;;5.90;;
43449;SDS011;29041;42.266;23.110;2022-10-22T08:39:01;8.98;;;6.45;;
43449;SDS011;29041;42.266;23.110;2022-10-22T08:41:50;12.73;;;6.43;;
43449;SDS011;29041;42.266;23.110;2022-10-22T08:44:52;7.53;;;5.68;;
43449;SDS011;29041;42.266;23.110;2022-10-22T08:51:00;13.27;;;5.85;;
43449;SDS011;29041;42.266;23.110;2022-10-22T08:57:02;8.75;;;5.47;;
43449;SDS011;29041;42.266;23.110;2022-10-22T09:00:10;12.35;;;6.18;;
43449;SDS011;29041;42.266;23.110;2022-10-22T09:03:25;12.75;;;6.10;;
43449;SDS011;29041;42.266;23.110;2022-10-22T09:06:20;7.53;;;5.20;;
43449;SDS011;29041;42.266;23.110;2022-10-22T09:09:11;6.88;;;5.75;;
43449;SDS011;29041;42.266;23.110;2022-10-22T09:12:02;8.55;;;5.13;;
43449;SDS011;29041;42.266;23.110;2022-10-22T09:14:51;8.23;;;5.22;;
43449;SDS011;29041;42.266;23.110;2022-10-22T09:17:40;9.30;;;5.18;;
43449;SDS011;29041;42.266;23.110;2022-10-22T09:20:37;6.95;;;4.43;;
43449;SDS011;29041;42.266;23.110;2022-10-22T09:23:31;8.60;;;5.78;;
43449;SDS011;29041;42.266;23.110;2022-10-22T09:26:25;7.68;;;4.60;;
43449;SDS011;29041;42.266;23.110;2022-10-22T09:29:13;7.90;;;5.25;;
43449;SDS011;29041;42.266;23.110;2022-10-22T09:32:04;6.25;;;4.80;;
43449;SDS011;29041;42.266;23.110;2022-10-22T09:34:54;7.22;;;4.75;;
43449;SDS011;29041;42.266;23.110;2022-10-22T09:37:48;8.80;;;4.82;;
43449;SDS011;29041;42.266;23.110;2022-10-22T09:40:41;7.95;;;5.00;;
43449;SDS011;29041;42.266;23.110;2022-10-22T09:43:29;8.48;;;5.13;;
43449;SDS011;29041;42.266;23.110;2022-10-22T09:46:18;6.70;;;4.70;;
43449;SDS011;29041;42.266;23.110;2022-10-22T09:49:09;7.15;;;4.50;;
43449;SDS011;29041;42.266;23.110;2022-10-22T09:51:59;7.35;;;4.72;;
43449;SDS011;29041;42.266;23.110;2022-10-22T09:54:48;9.88;;;5.40;;
43449;SDS011;29041;42.266;23.110;2022-10-22T09:57:38;7.38;;;5.47;;
43449;SDS011;29041;42.266;23.110;2022-10-22T10:00:25;10.00;;;5.85;;
43449;SDS011;29041;42.266;23.110;2022-10-22T10:03:15;5.40;;;4.72;;
43449;SDS011;29041;42.266;23.110;2022-10-22T10:06:04;7.28;;;5.03;;
43449;SDS011;29041;42.266;23.110;2022-10-22T10:08:52;7.28;;;5.20;;
43449;SDS011;29041;42.266;23.110;2022-10-22T10:11:45;6.78;;;4.55;;
43449;SDS011;29041;42.266;23.110;2022-10-22T10:14:38;7.53;;;5.30;;
43449;SDS011;29041;42.266;23.110;2022-10-22T10:17:35;6.78;;;5.13;;
43449;SDS011;29041;42.266;23.110;2022-10-22T10:20:32;7.07;;;4.95;;
43449;SDS011;29041;42.266;23.110;2022-10-22T10:23:27;6.57;;;4.35;;
43449;SDS011;29041;42.266;23.110;2022-10-22T10:26:22;6.57;;;4.97;;
43449;SDS011;29041;42.266;23.110;2022-10-22T10:29:22;5.28;;;4.15;;
43449;SDS011;29041;42.266;23.110;2022-10-22T10:32:41;8.38;;;4.97;;
43449;SDS011;29041;42.266;23.110;2022-10-22T10:35:42;6.68;;;4.60;;
43449;SDS011;29041;42.266;23.110;2022-10-22T10:38:41;7.60;;;4.35;;
43449;SDS011;29041;42.266;23.110;2022-10-22T10:41:38;6.38;;;4.57;;
43449;SDS011;29041;42.266;23.110;2022-10-22T10:44:51;6.25;;;4.63;;
43449;SDS011;29041;42.266;23.110;2022-10-22T10:47:53;6.72;;;4.30;;
43449;SDS011;29041;42.266;23.110;2022-10-22T10:50:52;8.23;;;4.65;;
43449;SDS011;29041;42.266;23.110;2022-10-22T10:53:53;9.02;;;5.15;;
43449;SDS011;29041;42.266;23.110;2022-10-22T10:56:54;10.55;;;6.80;;
43449;SDS011;29041;42.266;23.110;2022-10-22T11:03:04;16.00;;;10.80;;
43449;SDS011;29041;42.266;23.110;2022-10-22T11:06:17;8.18;;;5.55;;
43449;SDS011;29041;42.266;23.110;2022-10-22T11:09:06;17.13;;;8.63;;
43449;SDS011;29041;42.266;23.110;2022-10-22T11:12:04;6.10;;;4.57;;
43449;SDS011;29041;42.266;23.110;2022-10-22T11:14:59;6.35;;;4.32;;
43449;SDS011;29041;42.266;23.110;2022-10-22T11:17:52;8.75;;;4.97;;
43449;SDS011;29041;42.266;23.110;2022-10-22T11:23:36;10.85;;;6.85;;
43449;SDS011;29041;42.266;23.110;2022-10-22T11:26:31;7.68;;;5.50;;
43449;SDS011;29041;42.266;23.110;2022-10-22T11:29:23;9.60;;;6.40;;
43449;SDS011;29041;42.266;23.110;2022-10-22T11:32:14;7.20;;;5.32;;
43449;SDS011;29041;42.266;23.110;2022-10-22T11:35:07;17.02;;;6.90;;
43449;SDS011;29041;42.266;23.110;2022-10-22T11:38:00;19.83;;;10.32;;
43449;SDS011;29041;42.266;23.110;2022-10-22T11:40:51;19.50;;;9.55;;
43449;SDS011;29041;42.266;23.110;2022-10-22T11:43:55;11.38;;;6.32;;
43449;SDS011;29041;42.266;23.110;2022-10-22T11:46:54;7.35;;;4.53;;
43449;SDS011;29041;42.266;23.110;2022-10-22T11:49:43;5.75;;;4.38;;
43449;SDS011;29041;42.266;23.110;2022-10-22T11:52:46;7.82;;;4.35;;
43449;SDS011;29041;42.266;23.110;2022-10-22T11:55:43;7.00;;;4.65;;
43449;SDS011;29041;42.266;23.110;2022-10-22T11:58:34;10.02;;;4.82;;
43449;SDS011;29041;42.266;23.110;2022-10-22T12:01:28;8.95;;;5.70;;
43449;SDS011;29041;42.266;23.110;2022-10-22T12:04:38;7.70;;;4.68;;
43449;SDS011;29041;42.266;23.110;2022-10-22T12:07:31;5.82;;;4.47;;
43449;SDS011;29041;42.266;23.110;2022-10-22T12:10:21;9.07;;;5.15;;
43449;SDS011;29041;42.266;23.110;2022-10-22T12:13:12;5.70;;;4.55;;
43449;SDS011;29041;42.266;23.110;2022-10-22T12:16:07;6.25;;;4.35;;
43449;SDS011;29041;42.266;23.110;2022-10-22T12:18:59;7.72;;;4.68;;
43449;SDS011;29041;42.266;23.110;2022-10-22T12:21:51;8.02;;;4.85;;
43449;SDS011;29041;42.266;23.110;2022-10-22T12:24:40;6.18;;;4.47;;
43449;SDS011;29041;42.266;23.110;2022-10-22T12:27:34;6.70;;;3.50;;
43449;SDS011;29041;42.266;23.110;2022-10-22T12:30:23;6.35;;;3.85;;
43449;SDS011;29041;42.266;23.110;2022-10-22T12:33:16;8.50;;;4.07;;
43449;SDS011;29041;42.266;23.110;2022-10-22T12:36:05;4.75;;;3.88;;
43449;SDS011;29041;42.266;23.110;2022-10-22T12:38:53;6.82;;;3.58;;
43449;SDS011;29041;42.266;23.110;2022-10-22T12:41:40;6.65;;;3.80;;
43449;SDS011;29041;42.266;23.110;2022-10-22T12:44:29;5.75;;;4.35;;
43449;SDS011;29041;42.266;23.110;2022-10-22T12:47:18;4.20;;;3.50;;
43449;SDS011;29041;42.266;23.110;2022-10-22T12:50:05;6.28;;;4.18;;
43449;SDS011;29041;42.266;23.110;2022-10-22T12:52:53;7.90;;;4.13;;
43449;SDS011;29041;42.266;23.110;2022-10-22T12:55:41;5.47;;;4.15;;
43449;SDS011;29041;42.266;23.110;2022-10-22T12:58:32;6.38;;;4.47;;
43449;SDS011;29041;42.266;23.110;2022-10-22T13:01:25;13.68;;;7.82;;
43449;SDS011;29041;42.266;23.110;2022-10-22T13:04:19;11.45;;;7.05;;
43449;SDS011;29041;42.266;23.110;2022-10-22T13:07:15;15.02;;;7.90;;
43449;SDS011;29041;42.266;23.110;2022-10-22T13:10:13;7.13;;;4.53;;
43449;SDS011;29041;42.266;23.110;2022-10-22T13:13:03;5.68;;;4.15;;
43449;SDS011;29041;42.266;23.110;2022-10-22T13:15:51;18.80;;;10.02;;
43449;SDS011;29041;42.266;23.110;2022-10-22T13:18:42;30.33;;;15.82;;
43449;SDS011;29041;42.266;23.110;2022-10-22T13:21:33;40.57;;;22.97;;
43449;SDS011;29041;42.266;23.110;2022-10-22T13:24:23;28.00;;;15.90;;
43449;SDS011;29041;42.266;23.110;2022-10-22T13:27:11;21.98;;;12.48;;
43449;SDS011;29041;42.266;23.110;2022-10-22T13:29:59;7.57;;;5.43;;
43449;SDS011;29041;42.266;23.110;2022-10-22T13:32:49;19.13;;;10.77;;
43449;SDS011;29041;42.266;23.110;2022-10-22T13:35:39;14.45;;;8.75;;
43449;SDS011;29041;42.266;23.110;2022-10-22T13:38:27;47.72;;;21.90;;
43449;SDS011;29041;42.266;23.110;2022-10-22T13:41:18;7.30;;;4.68;;
43449;SDS011;29041;42.266;23.110;2022-10-22T13:44:06;5.40;;;4.25;;
43449;SDS011;29041;42.266;23.110;2022-10-22T13:46:53;33.33;;;19.00;;
43449;SDS011;29041;42.266;23.110;2022-10-22T13:49:41;7.90;;;4.53;;
43449;SDS011;29041;42.266;23.110;2022-10-22T13:52:33;15.55;;;9.15;;
43449;SDS011;29041;42.266;23.110;2022-10-22T13:55:24;20.17;;;10.38;;
43449;SDS011;29041;42.266;23.110;2022-10-22T13:58:14;5.07;;;3.63;;
43449;SDS011;29041;42.266;23.110;2022-10-22T14:01:02;4.40;;;2.53;;
43449;SDS011;29041;42.266;23.110;2022-10-22T14:03:53;5.07;;;3.28;;
43449;SDS011;29041;42.266;23.110;2022-10-22T14:06:42;17.35;;;8.82;;
43449;SDS011;29041;42.266;23.110;2022-10-22T14:09:31;12.52;;;8.35;;
43449;SDS011;29041;42.266;23.110;2022-10-22T14:12:18;10.98;;;6.55;;
43449;SDS011;29041;42.266;23.110;2022-10-22T14:15:06;17.45;;;9.38;;
43449;SDS011;29041;42.266;23.110;2022-10-22T14:17:54;15.77;;;8.75;;
43449;SDS011;29041;42.266;23.110;2022-10-22T14:20:43;19.63;;;8.02;;
43449;SDS011;29041;42.266;23.110;2022-10-22T14:23:30;9.00;;;4.88;;
43449;SDS011;29041;42.266;23.110;2022-10-22T14:26:21;6.40;;;4.43;;
43449;SDS011;29041;42.266;23.110;2022-10-22T14:29:10;11.00;;;4.60;;
43449;SDS011;29041;42.266;23.110;2022-10-22T14:31:57;7.35;;;2.95;;
43449;SDS011;29041;42.266;23.110;2022-10-22T14:34:44;4.38;;;2.60;;
43449;SDS011;29041;42.266;23.110;2022-10-22T14:37:34;9.43;;;4.65;;
43449;SDS011;29041;42.266;23.110;2022-10-22T14:40:22;4.13;;;2.95;;
43449;SDS011;29041;42.266;23.110;2022-10-22T14:43:10;7.13;;;3.50;;
43449;SDS011;29041;42.266;23.110;2022-10-22T14:45:59;14.05;;;3.70;;
43449;SDS011;29041;42.266;23.110;2022-10-22T14:48:47;10.02;;;4.18;;
43449;SDS011;29041;42.266;23.110;2022-10-22T14:51:34;6.40;;;3.25;;
43449;SDS011;29041;42.266;23.110;2022-10-22T14:54:21;7.40;;;4.20;;
43449;SDS011;29041;42.266;23.110;2022-10-22T14:57:08;6.60;;;3.67;;
43449;SDS011;29041;42.266;23.110;2022-10-22T15:00:00;7.38;;;5.32;;
43449;SDS011;29041;42.266;23.110;2022-10-22T15:02:47;9.40;;;6.68;;
43449;SDS011;29041;42.266;23.110;2022-10-22T15:05:35;13.25;;;5.30;;
43449;SDS011;29041;42.266;23.110;2022-10-22T15:11:15;16.13;;;5.97;;
43449;SDS011;29041;42.266;23.110;2022-10-22T15:14:02;7.45;;;4.53;;
43449;SDS011;29041;42.266;23.110;2022-10-22T15:16:51;9.43;;;4.40;;
43449;SDS011;29041;42.266;23.110;2022-10-22T15:19:40;11.15;;;6.10;;
43449;SDS011;29041;42.266;23.110;2022-10-22T15:22:28;10.93;;;5.93;;
43449;SDS011;29041;42.266;23.110;2022-10-22T15:25:16;10.30;;;6.38;;
43449;SDS011;29041;42.266;23.110;2022-10-22T15:28:03;7.28;;;5.03;;
43449;SDS011;29041;42.266;23.110;2022-10-22T15:30:51;9.65;;;5.45;;
43449;SDS011;29041;42.266;23.110;2022-10-22T15:33:41;7.70;;;4.65;;
43449;SDS011;29041;42.266;23.110;2022-10-22T15:36:29;6.20;;;3.60;;
43449;SDS011;29041;42.266;23.110;2022-10-22T15:39:16;8.65;;;4.50;;
43449;SDS011;29041;42.266;23.110;2022-10-22T15:42:03;13.88;;;5.22;;
43449;SDS011;29041;42.266;23.110;2022-10-22T15:44:52;7.45;;;4.00;;
43449;SDS011;29041;42.266;23.110;2022-10-22T15:47:43;6.20;;;4.57;;
43449;SDS011;29041;42.266;23.110;2022-10-22T15:50:33;7.75;;;5.05;;
43449;SDS011;29041;42.266;23.110;2022-10-22T15:53:23;12.20;;;5.70;;
43449;SDS011;29041;42.266;23.110;2022-10-22T15:56:11;10.48;;;5.53;;
43449;SDS011;29041;42.266;23.110;2022-10-22T15:58:58;8.82;;;4.82;;
43449;SDS011;29041;42.266;23.110;2022-10-22T16:01:47;11.27;;;6.50;;
43449;SDS011;29041;42.266;23.110;2022-10-22T16:04:34;11.07;;;6.75;;
43449;SDS011;29041;42.266;23.110;2022-10-22T16:07:24;8.98;;;5.75;;
43449;SDS011;29041;42.266;23.110;2022-10-22T16:10:12;11.52;;;6.45;;
43449;SDS011;29041;42.266;23.110;2022-10-22T16:12:59;10.73;;;5.95;;
43449;SDS011;29041;42.266;23.110;2022-10-22T16:15:47;13.32;;;7.85;;
43449;SDS011;29041;42.266;23.110;2022-10-22T16:18:34;31.05;;;16.08;;
43449;SDS011;29041;42.266;23.110;2022-10-22T16:21:22;83.60;;;42.50;;
43449;SDS011;29041;42.266;23.110;2022-10-22T16:24:11;46.00;;;23.88;;
43449;SDS011;29041;42.266;23.110;2022-10-22T16:26:58;50.60;;;27.50;;
43449;SDS011;29041;42.266;23.110;2022-10-22T16:29:45;30.45;;;15.93;;
43449;SDS011;29041;42.266;23.110;2022-10-22T16:32:33;29.77;;;16.67;;
43449;SDS011;29041;42.266;23.110;2022-10-22T16:35:20;26.75;;;14.25;;
43449;SDS011;29041;42.266;23.110;2022-10-22T16:38:07;24.33;;;11.48;;
43449;SDS011;29041;42.266;23.110;2022-10-22T16:41:06;16.13;;;9.55;;
43449;SDS011;29041;42.266;23.110;2022-10-22T16:43:54;15.27;;;9.63;;
43449;SDS011;29041;42.266;23.110;2022-10-22T16:46:41;11.32;;;7.85;;
43449;SDS011;29041;42.266;23.110;2022-10-22T16:49:28;14.40;;;7.47;;
43449;SDS011;29041;42.266;23.110;2022-10-22T16:52:15;11.63;;;7.43;;
43449;SDS011;29041;42.266;23.110;2022-10-22T16:55:02;23.27;;;10.88;;
43449;SDS011;29041;42.266;23.110;2022-10-22T16:57:51;19.98;;;12.23;;
43449;SDS011;29041;42.266;23.110;2022-10-22T17:00:44;21.42;;;13.07;;
43449;SDS011;29041;42.266;23.110;2022-10-22T17:03:31;27.45;;;15.32;;